sensor_id;sensor_type;location;lat;lon;timestamp;P1;durP1;ratioP1;P2;durP2;ratioP2
71665;SDS011;59503;53.486;10.196;2022-12-13T00:01:24;66.57;;;20.33;;
71665;SDS011;59503;53.486;10.196;2022-12-13T00:03:51;63.70;;;21.17;;
71665;SDS011;59503;53.486;10.196;2022-12-13T00:06:17;59.58;;;19.55;;
71665;SDS011;59503;53.486;10.196;2022-12-13T00:08:42;55.70;;;19.10;;
71665;SDS011;59503;53.486;10.196;2022-12-13T00:11:10;52.17;;;18.63;;
71665;SDS011;59503;53.486;10.196;2022-12-13T00:13:36;55.88;;;17.63;;
71665;SDS011;59503;53.486;10.196;2022-12-13T00:16:03;55.80;;;18.00;;
71665;SDS011;59503;53.486;10.196;2022-12-13T00:18:32;52.80;;;18.48;;
71665;SDS011;59503;53.486;10.196;2022-12-13T00:20:58;53.55;;;18.33;;
71665;SDS011;59503;53.486;10.196;2022-12-13T00:23:23;48.20;;;16.23;;
71665;SDS011;59503;53.486;10.196;2022-12-13T00:25:49;48.27;;;15.83;;
71665;SDS011;59503;53.486;10.196;2022-12-13T00:28:14;49.83;;;16.50;;
71665;SDS011;59503;53.486;10.196;2022-12-13T00:30:40;50.83;;;16.60;;
71665;SDS011;59503;53.486;10.196;2022-12-13T00:33:06;45.83;;;17.70;;
71665;SDS011;59503;53.486;10.196;2022-12-13T00:35:32;49.35;;;16.10;;
71665;SDS011;59503;53.486;10.196;2022-12-13T00:37:58;44.50;;;15.50;;
71665;SDS011;59503;53.486;10.196;2022-12-13T00:40:24;52.65;;;15.57;;
71665;SDS011;59503;53.486;10.196;2022-12-13T00:42:52;51.08;;;16.77;;
71665;SDS011;59503;53.486;10.196;2022-12-13T00:45:17;44.07;;;16.10;;
71665;SDS011;59503;53.486;10.196;2022-12-13T00:47:42;51.27;;;16.33;;
71665;SDS011;59503;53.486;10.196;2022-12-13T00:50:08;60.43;;;19.87;;
71665;SDS011;59503;53.486;10.196;2022-12-13T00:52:34;57.70;;;18.83;;
71665;SDS011;59503;53.486;10.196;2022-12-13T00:54:59;55.37;;;18.83;;
71665;SDS011;59503;53.486;10.196;2022-12-13T00:57:25;62.43;;;19.13;;
71665;SDS011;59503;53.486;10.196;2022-12-13T00:59:51;58.78;;;18.70;;
71665;SDS011;59503;53.486;10.196;2022-12-13T01:02:16;59.67;;;16.55;;
71665;SDS011;59503;53.486;10.196;2022-12-13T01:04:42;51.20;;;16.87;;
71665;SDS011;59503;53.486;10.196;2022-12-13T01:07:07;58.33;;;17.33;;
71665;SDS011;59503;53.486;10.196;2022-12-13T01:09:33;56.72;;;19.33;;
71665;SDS011;59503;53.486;10.196;2022-12-13T01:11:59;60.53;;;18.90;;
71665;SDS011;59503;53.486;10.196;2022-12-13T01:14:29;69.93;;;20.02;;
71665;SDS011;59503;53.486;10.196;2022-12-13T01:16:55;63.92;;;20.67;;
71665;SDS011;59503;53.486;10.196;2022-12-13T01:19:24;74.43;;;21.07;;
71665;SDS011;59503;53.486;10.196;2022-12-13T01:21:55;59.42;;;19.23;;
71665;SDS011;59503;53.486;10.196;2022-12-13T01:24:21;55.75;;;17.42;;
71665;SDS011;59503;53.486;10.196;2022-12-13T01:26:49;59.43;;;18.23;;
71665;SDS011;59503;53.486;10.196;2022-12-13T01:29:14;59.72;;;17.95;;
71665;SDS011;59503;53.486;10.196;2022-12-13T01:31:40;63.37;;;18.10;;
71665;SDS011;59503;53.486;10.196;2022-12-13T01:34:09;56.95;;;17.75;;
71665;SDS011;59503;53.486;10.196;2022-12-13T01:36:35;48.63;;;16.25;;
71665;SDS011;59503;53.486;10.196;2022-12-13T01:39:02;59.47;;;17.77;;
71665;SDS011;59503;53.486;10.196;2022-12-13T01:41:28;57.33;;;18.63;;
71665;SDS011;59503;53.486;10.196;2022-12-13T01:43:55;61.22;;;19.98;;
71665;SDS011;59503;53.486;10.196;2022-12-13T01:46:24;67.18;;;19.23;;
71665;SDS011;59503;53.486;10.196;2022-12-13T01:48:56;69.13;;;19.83;;
71665;SDS011;59503;53.486;10.196;2022-12-13T01:51:24;58.53;;;17.77;;
71665;SDS011;59503;53.486;10.196;2022-12-13T01:53:55;64.78;;;19.38;;
71665;SDS011;59503;53.486;10.196;2022-12-13T01:56:26;62.00;;;17.35;;
71665;SDS011;59503;53.486;10.196;2022-12-13T01:58:55;57.67;;;16.63;;
71665;SDS011;59503;53.486;10.196;2022-12-13T02:01:22;48.97;;;15.60;;
71665;SDS011;59503;53.486;10.196;2022-12-13T02:03:49;53.05;;;15.52;;
71665;SDS011;59503;53.486;10.196;2022-12-13T02:06:15;42.30;;;13.70;;
71665;SDS011;59503;53.486;10.196;2022-12-13T02:08:47;44.40;;;14.48;;
71665;SDS011;59503;53.486;10.196;2022-12-13T02:11:13;48.72;;;15.38;;
71665;SDS011;59503;53.486;10.196;2022-12-13T02:13:39;43.67;;;13.82;;
71665;SDS011;59503;53.486;10.196;2022-12-13T02:25:11;53.50;;;16.50;;
71665;SDS011;59503;53.486;10.196;2022-12-13T02:30:50;48.35;;;15.73;;
71665;SDS011;59503;53.486;10.196;2022-12-13T02:33:26;62.08;;;16.83;;
71665;SDS011;59503;53.486;10.196;2022-12-13T02:36:18;61.38;;;21.63;;
71665;SDS011;59503;53.486;10.196;2022-12-13T02:38:57;62.33;;;18.23;;
71665;SDS011;59503;53.486;10.196;2022-12-13T02:41:43;66.47;;;18.77;;
71665;SDS011;59503;53.486;10.196;2022-12-13T02:46:46;59.40;;;17.42;;
71665;SDS011;59503;53.486;10.196;2022-12-13T02:49:17;54.22;;;17.25;;
71665;SDS011;59503;53.486;10.196;2022-12-13T02:51:44;58.80;;;17.90;;
71665;SDS011;59503;53.486;10.196;2022-12-13T02:54:10;54.10;;;17.10;;
71665;SDS011;59503;53.486;10.196;2022-12-13T02:56:35;52.50;;;16.15;;
71665;SDS011;59503;53.486;10.196;2022-12-13T02:59:02;53.60;;;16.80;;
71665;SDS011;59503;53.486;10.196;2022-12-13T03:07:32;50.53;;;15.70;;
71665;SDS011;59503;53.486;10.196;2022-12-13T03:10:12;47.53;;;14.68;;
71665;SDS011;59503;53.486;10.196;2022-12-13T03:12:45;49.20;;;16.27;;
71665;SDS011;59503;53.486;10.196;2022-12-13T03:15:44;61.50;;;18.45;;
71665;SDS011;59503;53.486;10.196;2022-12-13T03:18:17;51.95;;;15.13;;
71665;SDS011;59503;53.486;10.196;2022-12-13T03:20:49;50.27;;;15.80;;
71665;SDS011;59503;53.486;10.196;2022-12-13T03:23:18;60.75;;;15.95;;
71665;SDS011;59503;53.486;10.196;2022-12-13T03:25:44;46.45;;;15.40;;
71665;SDS011;59503;53.486;10.196;2022-12-13T03:28:14;58.45;;;17.05;;
71665;SDS011;59503;53.486;10.196;2022-12-13T03:30:39;45.27;;;14.53;;
71665;SDS011;59503;53.486;10.196;2022-12-13T03:33:04;60.38;;;16.48;;
71665;SDS011;59503;53.486;10.196;2022-12-13T03:35:30;47.23;;;13.57;;
71665;SDS011;59503;53.486;10.196;2022-12-13T03:37:56;51.25;;;14.07;;
71665;SDS011;59503;53.486;10.196;2022-12-13T03:40:22;48.90;;;14.10;;
71665;SDS011;59503;53.486;10.196;2022-12-13T03:42:48;46.38;;;13.80;;
71665;SDS011;59503;53.486;10.196;2022-12-13T03:45:13;49.97;;;15.07;;
71665;SDS011;59503;53.486;10.196;2022-12-13T03:47:39;48.70;;;15.53;;
71665;SDS011;59503;53.486;10.196;2022-12-13T03:50:04;47.03;;;14.20;;
71665;SDS011;59503;53.486;10.196;2022-12-13T03:52:30;59.75;;;17.25;;
71665;SDS011;59503;53.486;10.196;2022-12-13T03:54:55;59.57;;;16.53;;
71665;SDS011;59503;53.486;10.196;2022-12-13T03:57:21;51.43;;;17.33;;
71665;SDS011;59503;53.486;10.196;2022-12-13T03:59:46;65.87;;;18.17;;
71665;SDS011;59503;53.486;10.196;2022-12-13T04:02:12;54.10;;;17.33;;
71665;SDS011;59503;53.486;10.196;2022-12-13T04:04:37;65.10;;;16.50;;
71665;SDS011;59503;53.486;10.196;2022-12-13T04:07:03;59.80;;;16.73;;
71665;SDS011;59503;53.486;10.196;2022-12-13T04:09:28;57.53;;;15.80;;
71665;SDS011;59503;53.486;10.196;2022-12-13T04:11:53;47.70;;;15.20;;
71665;SDS011;59503;53.486;10.196;2022-12-13T04:14:37;55.70;;;14.93;;
71665;SDS011;59503;53.486;10.196;2022-12-13T04:17:03;50.97;;;16.67;;
71665;SDS011;59503;53.486;10.196;2022-12-13T04:19:28;66.23;;;17.30;;
71665;SDS011;59503;53.486;10.196;2022-12-13T04:21:53;58.07;;;17.03;;
71665;SDS011;59503;53.486;10.196;2022-12-13T04:24:19;53.33;;;16.63;;
71665;SDS011;59503;53.486;10.196;2022-12-13T04:26:46;52.15;;;15.05;;
71665;SDS011;59503;53.486;10.196;2022-12-13T04:29:11;56.27;;;18.03;;
71665;SDS011;59503;53.486;10.196;2022-12-13T04:31:37;54.30;;;16.45;;
71665;SDS011;59503;53.486;10.196;2022-12-13T04:34:02;53.67;;;16.27;;
71665;SDS011;59503;53.486;10.196;2022-12-13T04:36:28;50.22;;;15.73;;
71665;SDS011;59503;53.486;10.196;2022-12-13T04:38:54;54.58;;;17.52;;
71665;SDS011;59503;53.486;10.196;2022-12-13T04:41:19;52.90;;;14.97;;
71665;SDS011;59503;53.486;10.196;2022-12-13T04:43:49;47.43;;;13.60;;
71665;SDS011;59503;53.486;10.196;2022-12-13T04:46:16;42.28;;;14.77;;
71665;SDS011;59503;53.486;10.196;2022-12-13T04:48:43;47.03;;;16.02;;
71665;SDS011;59503;53.486;10.196;2022-12-13T04:51:08;48.10;;;15.07;;
71665;SDS011;59503;53.486;10.196;2022-12-13T04:53:34;56.47;;;15.13;;
71665;SDS011;59503;53.486;10.196;2022-12-13T04:56:01;58.88;;;15.05;;
71665;SDS011;59503;53.486;10.196;2022-12-13T04:58:27;48.60;;;15.10;;
71665;SDS011;59503;53.486;10.196;2022-12-13T05:00:53;50.28;;;15.57;;
71665;SDS011;59503;53.486;10.196;2022-12-13T05:03:19;48.60;;;16.83;;
71665;SDS011;59503;53.486;10.196;2022-12-13T05:05:44;55.40;;;15.35;;
71665;SDS011;59503;53.486;10.196;2022-12-13T05:08:09;54.13;;;15.57;;
71665;SDS011;59503;53.486;10.196;2022-12-13T05:10:35;51.87;;;15.13;;
71665;SDS011;59503;53.486;10.196;2022-12-13T05:13:02;60.70;;;17.52;;
71665;SDS011;59503;53.486;10.196;2022-12-13T05:15:28;51.00;;;16.33;;
71665;SDS011;59503;53.486;10.196;2022-12-13T05:17:54;49.50;;;16.00;;
71665;SDS011;59503;53.486;10.196;2022-12-13T05:20:23;51.97;;;15.87;;
71665;SDS011;59503;53.486;10.196;2022-12-13T05:22:48;48.47;;;15.23;;
71665;SDS011;59503;53.486;10.196;2022-12-13T05:25:13;42.97;;;15.47;;
71665;SDS011;59503;53.486;10.196;2022-12-13T05:27:39;56.27;;;15.77;;
71665;SDS011;59503;53.486;10.196;2022-12-13T05:30:04;57.13;;;15.83;;
71665;SDS011;59503;53.486;10.196;2022-12-13T05:32:32;45.28;;;14.25;;
71665;SDS011;59503;53.486;10.196;2022-12-13T05:35:01;49.10;;;15.67;;
71665;SDS011;59503;53.486;10.196;2022-12-13T05:37:26;49.72;;;16.48;;
71665;SDS011;59503;53.486;10.196;2022-12-13T05:39:51;55.40;;;16.53;;
71665;SDS011;59503;53.486;10.196;2022-12-13T05:42:17;48.50;;;16.03;;
71665;SDS011;59503;53.486;10.196;2022-12-13T05:44:42;56.58;;;14.93;;
71665;SDS011;59503;53.486;10.196;2022-12-13T05:47:07;50.03;;;15.60;;
71665;SDS011;59503;53.486;10.196;2022-12-13T05:49:33;51.27;;;14.83;;
71665;SDS011;59503;53.486;10.196;2022-12-13T05:51:58;46.97;;;15.10;;
71665;SDS011;59503;53.486;10.196;2022-12-13T05:54:23;48.50;;;14.50;;
71665;SDS011;59503;53.486;10.196;2022-12-13T05:56:49;44.87;;;14.43;;
71665;SDS011;59503;53.486;10.196;2022-12-13T05:59:14;44.00;;;15.70;;
71665;SDS011;59503;53.486;10.196;2022-12-13T06:01:39;48.17;;;15.13;;
71665;SDS011;59503;53.486;10.196;2022-12-13T06:04:05;52.30;;;15.83;;
71665;SDS011;59503;53.486;10.196;2022-12-13T06:06:31;46.63;;;16.43;;
71665;SDS011;59503;53.486;10.196;2022-12-13T06:08:57;54.92;;;16.20;;
71665;SDS011;59503;53.486;10.196;2022-12-13T06:11:23;53.80;;;16.67;;
71665;SDS011;59503;53.486;10.196;2022-12-13T06:13:49;50.33;;;15.53;;
71665;SDS011;59503;53.486;10.196;2022-12-13T06:16:16;46.42;;;15.63;;
71665;SDS011;59503;53.486;10.196;2022-12-13T06:18:41;54.17;;;15.93;;
71665;SDS011;59503;53.486;10.196;2022-12-13T06:21:06;48.47;;;15.93;;
71665;SDS011;59503;53.486;10.196;2022-12-13T06:23:32;47.53;;;15.87;;
71665;SDS011;59503;53.486;10.196;2022-12-13T06:26:00;51.00;;;15.75;;
71665;SDS011;59503;53.486;10.196;2022-12-13T06:28:27;55.30;;;16.10;;
71665;SDS011;59503;53.486;10.196;2022-12-13T06:30:53;47.28;;;16.17;;
71665;SDS011;59503;53.486;10.196;2022-12-13T06:33:18;46.33;;;14.93;;
71665;SDS011;59503;53.486;10.196;2022-12-13T06:35:44;49.17;;;15.25;;
71665;SDS011;59503;53.486;10.196;2022-12-13T06:38:10;51.03;;;15.43;;
71665;SDS011;59503;53.486;10.196;2022-12-13T06:40:36;49.97;;;15.20;;
71665;SDS011;59503;53.486;10.196;2022-12-13T06:43:01;44.17;;;14.93;;
71665;SDS011;59503;53.486;10.196;2022-12-13T06:45:28;57.75;;;16.02;;
71665;SDS011;59503;53.486;10.196;2022-12-13T06:47:54;54.00;;;16.13;;
71665;SDS011;59503;53.486;10.196;2022-12-13T06:50:21;42.30;;;14.63;;
71665;SDS011;59503;53.486;10.196;2022-12-13T06:52:46;47.30;;;15.57;;
71665;SDS011;59503;53.486;10.196;2022-12-13T06:55:11;50.03;;;15.33;;
71665;SDS011;59503;53.486;10.196;2022-12-13T06:57:37;57.00;;;15.82;;
71665;SDS011;59503;53.486;10.196;2022-12-13T07:00:03;53.37;;;15.60;;
71665;SDS011;59503;53.486;10.196;2022-12-13T07:02:29;49.50;;;15.98;;
71665;SDS011;59503;53.486;10.196;2022-12-13T07:04:55;47.53;;;15.63;;
71665;SDS011;59503;53.486;10.196;2022-12-13T07:07:20;49.63;;;15.27;;
71665;SDS011;59503;53.486;10.196;2022-12-13T07:09:46;50.90;;;15.43;;
71665;SDS011;59503;53.486;10.196;2022-12-13T07:12:11;49.70;;;15.83;;
71665;SDS011;59503;53.486;10.196;2022-12-13T07:14:37;47.60;;;15.17;;
71665;SDS011;59503;53.486;10.196;2022-12-13T07:17:02;49.87;;;15.77;;
71665;SDS011;59503;53.486;10.196;2022-12-13T07:19:27;51.20;;;16.30;;
71665;SDS011;59503;53.486;10.196;2022-12-13T07:21:53;47.27;;;15.63;;
71665;SDS011;59503;53.486;10.196;2022-12-13T07:24:18;50.08;;;15.25;;
71665;SDS011;59503;53.486;10.196;2022-12-13T07:26:44;53.50;;;16.10;;
71665;SDS011;59503;53.486;10.196;2022-12-13T07:29:09;43.77;;;14.50;;
71665;SDS011;59503;53.486;10.196;2022-12-13T07:31:35;45.83;;;15.25;;
71665;SDS011;59503;53.486;10.196;2022-12-13T07:34:01;48.13;;;15.43;;
71665;SDS011;59503;53.486;10.196;2022-12-13T07:36:27;43.33;;;13.98;;
71665;SDS011;59503;53.486;10.196;2022-12-13T07:38:53;48.57;;;14.93;;
71665;SDS011;59503;53.486;10.196;2022-12-13T07:41:20;43.88;;;14.68;;
71665;SDS011;59503;53.486;10.196;2022-12-13T07:43:46;48.80;;;14.63;;
71665;SDS011;59503;53.486;10.196;2022-12-13T07:46:11;43.23;;;14.30;;
71665;SDS011;59503;53.486;10.196;2022-12-13T07:48:37;55.57;;;16.13;;
71665;SDS011;59503;53.486;10.196;2022-12-13T07:51:03;59.40;;;16.70;;
71665;SDS011;59503;53.486;10.196;2022-12-13T07:53:31;50.97;;;14.90;;
71665;SDS011;59503;53.486;10.196;2022-12-13T07:55:59;53.72;;;17.00;;
71665;SDS011;59503;53.486;10.196;2022-12-13T07:58:26;56.80;;;17.15;;
71665;SDS011;59503;53.486;10.196;2022-12-13T08:00:57;50.53;;;14.98;;
71665;SDS011;59503;53.486;10.196;2022-12-13T08:03:33;45.97;;;15.33;;
71665;SDS011;59503;53.486;10.196;2022-12-13T08:08:29;48.30;;;14.95;;
71665;SDS011;59503;53.486;10.196;2022-12-13T08:10:58;49.70;;;15.07;;
71665;SDS011;59503;53.486;10.196;2022-12-13T08:13:25;43.47;;;15.00;;
71665;SDS011;59503;53.486;10.196;2022-12-13T08:15:52;47.80;;;15.45;;
71665;SDS011;59503;53.486;10.196;2022-12-13T08:18:23;53.17;;;16.65;;
71665;SDS011;59503;53.486;10.196;2022-12-13T08:20:48;53.93;;;15.73;;
71665;SDS011;59503;53.486;10.196;2022-12-13T08:23:13;53.07;;;14.93;;
71665;SDS011;59503;53.486;10.196;2022-12-13T08:25:39;49.50;;;14.63;;
71665;SDS011;59503;53.486;10.196;2022-12-13T08:28:04;55.83;;;16.50;;
71665;SDS011;59503;53.486;10.196;2022-12-13T08:30:30;45.50;;;14.13;;
71665;SDS011;59503;53.486;10.196;2022-12-13T08:32:56;46.28;;;15.60;;
71665;SDS011;59503;53.486;10.196;2022-12-13T08:35:22;46.30;;;14.30;;
71665;SDS011;59503;53.486;10.196;2022-12-13T08:37:47;48.65;;;15.43;;
71665;SDS011;59503;53.486;10.196;2022-12-13T08:40:12;44.93;;;13.80;;
71665;SDS011;59503;53.486;10.196;2022-12-13T08:42:38;44.83;;;14.67;;
71665;SDS011;59503;53.486;10.196;2022-12-13T08:45:03;51.40;;;15.43;;
71665;SDS011;59503;53.486;10.196;2022-12-13T08:47:29;49.33;;;14.55;;
71665;SDS011;59503;53.486;10.196;2022-12-13T08:49:55;48.67;;;15.43;;
71665;SDS011;59503;53.486;10.196;2022-12-13T08:52:25;49.50;;;15.80;;
71665;SDS011;59503;53.486;10.196;2022-12-13T08:54:51;48.60;;;16.13;;
71665;SDS011;59503;53.486;10.196;2022-12-13T08:57:16;42.33;;;15.30;;
71665;SDS011;59503;53.486;10.196;2022-12-13T08:59:42;49.75;;;16.02;;
71665;SDS011;59503;53.486;10.196;2022-12-13T09:02:11;43.27;;;15.00;;
71665;SDS011;59503;53.486;10.196;2022-12-13T09:04:37;53.92;;;15.20;;
71665;SDS011;59503;53.486;10.196;2022-12-13T09:07:03;50.03;;;15.47;;
71665;SDS011;59503;53.486;10.196;2022-12-13T09:09:28;50.37;;;16.83;;
71665;SDS011;59503;53.486;10.196;2022-12-13T09:11:53;55.40;;;15.10;;
71665;SDS011;59503;53.486;10.196;2022-12-13T09:14:19;43.00;;;14.45;;
71665;SDS011;59503;53.486;10.196;2022-12-13T09:16:44;45.43;;;16.13;;
71665;SDS011;59503;53.486;10.196;2022-12-13T09:19:10;42.33;;;13.60;;
71665;SDS011;59503;53.486;10.196;2022-12-13T09:21:35;52.83;;;16.80;;
71665;SDS011;59503;53.486;10.196;2022-12-13T09:24:00;43.50;;;14.77;;
71665;SDS011;59503;53.486;10.196;2022-12-13T09:26:26;45.40;;;14.83;;
71665;SDS011;59503;53.486;10.196;2022-12-13T09:28:51;49.78;;;14.35;;
71665;SDS011;59503;53.486;10.196;2022-12-13T09:31:17;44.23;;;14.10;;
71665;SDS011;59503;53.486;10.196;2022-12-13T09:33:44;44.72;;;15.13;;
71665;SDS011;59503;53.486;10.196;2022-12-13T09:36:10;44.53;;;14.93;;
71665;SDS011;59503;53.486;10.196;2022-12-13T09:38:38;51.47;;;15.50;;
71665;SDS011;59503;53.486;10.196;2022-12-13T09:41:20;40.70;;;14.65;;
71665;SDS011;59503;53.486;10.196;2022-12-13T09:43:50;45.93;;;15.07;;
71665;SDS011;59503;53.486;10.196;2022-12-13T09:46:24;50.05;;;15.30;;
71665;SDS011;59503;53.486;10.196;2022-12-13T09:48:58;42.33;;;14.43;;
71665;SDS011;59503;53.486;10.196;2022-12-13T09:51:28;44.35;;;15.27;;
71665;SDS011;59503;53.486;10.196;2022-12-13T09:53:56;47.25;;;16.02;;
71665;SDS011;59503;53.486;10.196;2022-12-13T09:56:21;50.40;;;15.67;;
71665;SDS011;59503;53.486;10.196;2022-12-13T09:58:49;49.63;;;16.60;;
71665;SDS011;59503;53.486;10.196;2022-12-13T10:01:20;52.47;;;15.10;;
71665;SDS011;59503;53.486;10.196;2022-12-13T10:03:47;40.63;;;15.13;;
71665;SDS011;59503;53.486;10.196;2022-12-13T10:06:19;41.78;;;14.63;;
71665;SDS011;59503;53.486;10.196;2022-12-13T10:08:47;48.80;;;17.00;;
71665;SDS011;59503;53.486;10.196;2022-12-13T10:11:16;44.83;;;14.57;;
71665;SDS011;59503;53.486;10.196;2022-12-13T10:13:44;45.60;;;15.48;;
71665;SDS011;59503;53.486;10.196;2022-12-13T10:16:16;42.72;;;15.57;;
71665;SDS011;59503;53.486;10.196;2022-12-13T10:18:46;43.97;;;15.18;;
71665;SDS011;59503;53.486;10.196;2022-12-13T10:21:17;43.40;;;15.00;;
71665;SDS011;59503;53.486;10.196;2022-12-13T10:23:46;43.42;;;14.30;;
71665;SDS011;59503;53.486;10.196;2022-12-13T10:26:12;42.37;;;14.43;;
71665;SDS011;59503;53.486;10.196;2022-12-13T10:28:38;51.38;;;15.63;;
71665;SDS011;59503;53.486;10.196;2022-12-13T10:31:04;46.50;;;15.35;;
71665;SDS011;59503;53.486;10.196;2022-12-13T10:36:08;46.60;;;15.30;;
71665;SDS011;59503;53.486;10.196;2022-12-13T10:38:41;48.15;;;15.25;;
71665;SDS011;59503;53.486;10.196;2022-12-13T10:41:29;44.63;;;15.88;;
71665;SDS011;59503;53.486;10.196;2022-12-13T10:44:10;43.70;;;14.80;;
71665;SDS011;59503;53.486;10.196;2022-12-13T10:46:42;43.30;;;14.27;;
71665;SDS011;59503;53.486;10.196;2022-12-13T10:49:56;43.80;;;15.05;;
71665;SDS011;59503;53.486;10.196;2022-12-13T10:52:04;49.22;;;15.45;;
71665;SDS011;59503;53.486;10.196;2022-12-13T10:54:32;40.67;;;15.50;;
71665;SDS011;59503;53.486;10.196;2022-12-13T10:57:01;43.58;;;14.25;;
71665;SDS011;59503;53.486;10.196;2022-12-13T10:59:34;38.70;;;12.63;;
71665;SDS011;59503;53.486;10.196;2022-12-13T11:02:02;36.20;;;13.57;;
71665;SDS011;59503;53.486;10.196;2022-12-13T11:04:56;38.25;;;13.63;;
71665;SDS011;59503;53.486;10.196;2022-12-13T11:12:45;38.95;;;13.63;;
71665;SDS011;59503;53.486;10.196;2022-12-13T11:15:16;45.53;;;14.48;;
71665;SDS011;59503;53.486;10.196;2022-12-13T11:17:49;42.97;;;13.75;;
71665;SDS011;59503;53.486;10.196;2022-12-13T11:20:26;41.30;;;14.32;;
71665;SDS011;59503;53.486;10.196;2022-12-13T11:25:41;46.33;;;14.88;;
71665;SDS011;59503;53.486;10.196;2022-12-13T11:34:01;39.40;;;13.75;;
71665;SDS011;59503;53.486;10.196;2022-12-13T11:39:18;38.83;;;14.45;;
71665;SDS011;59503;53.486;10.196;2022-12-13T11:44:23;41.00;;;13.90;;
71665;SDS011;59503;53.486;10.196;2022-12-13T11:46:55;39.08;;;13.88;;
71665;SDS011;59503;53.486;10.196;2022-12-13T11:51:59;36.57;;;14.33;;
71665;SDS011;59503;53.486;10.196;2022-12-13T11:57:16;40.63;;;15.27;;
71665;SDS011;59503;53.486;10.196;2022-12-13T11:59:56;38.67;;;15.25;;
71665;SDS011;59503;53.486;10.196;2022-12-13T12:02:28;42.10;;;15.52;;
71665;SDS011;59503;53.486;10.196;2022-12-13T12:05:00;37.50;;;15.53;;
71665;SDS011;59503;53.486;10.196;2022-12-13T12:07:40;47.28;;;15.25;;
71665;SDS011;59503;53.486;10.196;2022-12-13T12:12:40;38.97;;;14.95;;
71665;SDS011;59503;53.486;10.196;2022-12-13T12:18:51;41.17;;;14.50;;
71665;SDS011;59503;53.486;10.196;2022-12-13T12:24:03;37.67;;;13.68;;
71665;SDS011;59503;53.486;10.196;2022-12-13T12:43:31;44.92;;;15.38;;
71665;SDS011;59503;53.486;10.196;2022-12-13T12:51:12;40.17;;;14.98;;
71665;SDS011;59503;53.486;10.196;2022-12-13T12:53:53;36.20;;;13.25;;
71665;SDS011;59503;53.486;10.196;2022-12-13T12:56:27;39.05;;;15.20;;
71665;SDS011;59503;53.486;10.196;2022-12-13T12:59:12;41.57;;;14.17;;
71665;SDS011;59503;53.486;10.196;2022-12-13T13:02:18;36.55;;;14.38;;
71665;SDS011;59503;53.486;10.196;2022-12-13T13:04:51;39.05;;;14.13;;
71665;SDS011;59503;53.486;10.196;2022-12-13T13:07:32;36.03;;;15.88;;
71665;SDS011;59503;53.486;10.196;2022-12-13T13:10:03;40.17;;;15.48;;
71665;SDS011;59503;53.486;10.196;2022-12-13T13:12:30;37.60;;;13.00;;
71665;SDS011;59503;53.486;10.196;2022-12-13T13:15:00;40.03;;;14.18;;
71665;SDS011;59503;53.486;10.196;2022-12-13T13:17:58;38.28;;;13.07;;
71665;SDS011;59503;53.486;10.196;2022-12-13T13:20:24;36.65;;;15.15;;
71665;SDS011;59503;53.486;10.196;2022-12-13T13:22:51;35.55;;;13.63;;
71665;SDS011;59503;53.486;10.196;2022-12-13T13:25:21;35.50;;;14.20;;
71665;SDS011;59503;53.486;10.196;2022-12-13T13:28:00;41.40;;;14.52;;
71665;SDS011;59503;53.486;10.196;2022-12-13T13:30:25;42.13;;;14.95;;
71665;SDS011;59503;53.486;10.196;2022-12-13T13:32:52;42.47;;;14.30;;
71665;SDS011;59503;53.486;10.196;2022-12-13T13:37:57;38.60;;;13.07;;
71665;SDS011;59503;53.486;10.196;2022-12-13T13:40:28;36.28;;;12.88;;
71665;SDS011;59503;53.486;10.196;2022-12-13T13:45:50;32.03;;;13.50;;
71665;SDS011;59503;53.486;10.196;2022-12-13T13:48:33;39.53;;;14.77;;
71665;SDS011;59503;53.486;10.196;2022-12-13T13:53:55;33.63;;;12.55;;
71665;SDS011;59503;53.486;10.196;2022-12-13T14:01:53;34.73;;;12.63;;
71665;SDS011;59503;53.486;10.196;2022-12-13T14:10:50;39.17;;;14.43;;
71665;SDS011;59503;53.486;10.196;2022-12-13T14:27:59;37.22;;;12.80;;
71665;SDS011;59503;53.486;10.196;2022-12-13T14:30:35;32.07;;;12.80;;
71665;SDS011;59503;53.486;10.196;2022-12-13T14:33:12;35.03;;;12.90;;
71665;SDS011;59503;53.486;10.196;2022-12-13T14:35:50;39.67;;;14.30;;
71665;SDS011;59503;53.486;10.196;2022-12-13T14:38:23;38.30;;;13.77;;
71665;SDS011;59503;53.486;10.196;2022-12-13T14:40:56;34.97;;;14.25;;
71665;SDS011;59503;53.486;10.196;2022-12-13T14:43:27;43.67;;;13.53;;
71665;SDS011;59503;53.486;10.196;2022-12-13T14:46:05;40.40;;;14.02;;
71665;SDS011;59503;53.486;10.196;2022-12-13T14:48:35;38.58;;;13.30;;
71665;SDS011;59503;53.486;10.196;2022-12-13T14:51:20;41.60;;;13.13;;
71665;SDS011;59503;53.486;10.196;2022-12-13T14:53:59;41.03;;;14.35;;
71665;SDS011;59503;53.486;10.196;2022-12-13T14:56:26;47.73;;;14.70;;
71665;SDS011;59503;53.486;10.196;2022-12-13T14:58:53;44.08;;;14.77;;
71665;SDS011;59503;53.486;10.196;2022-12-13T15:01:38;41.85;;;14.13;;
71665;SDS011;59503;53.486;10.196;2022-12-13T15:06:46;40.78;;;15.27;;
71665;SDS011;59503;53.486;10.196;2022-12-13T15:09:19;36.90;;;14.83;;
71665;SDS011;59503;53.486;10.196;2022-12-13T15:11:44;46.75;;;15.68;;
71665;SDS011;59503;53.486;10.196;2022-12-13T15:14:14;42.87;;;15.17;;
71665;SDS011;59503;53.486;10.196;2022-12-13T15:16:49;39.15;;;14.25;;
71665;SDS011;59503;53.486;10.196;2022-12-13T15:19:18;40.00;;;12.90;;
71665;SDS011;59503;53.486;10.196;2022-12-13T15:21:52;34.22;;;12.25;;
71665;SDS011;59503;53.486;10.196;2022-12-13T15:24:23;38.90;;;14.07;;
71665;SDS011;59503;53.486;10.196;2022-12-13T15:26:53;38.35;;;12.80;;
71665;SDS011;59503;53.486;10.196;2022-12-13T15:29:21;42.53;;;14.93;;
71665;SDS011;59503;53.486;10.196;2022-12-13T15:31:49;44.70;;;15.45;;
71665;SDS011;59503;53.486;10.196;2022-12-13T15:34:21;40.50;;;13.73;;
71665;SDS011;59503;53.486;10.196;2022-12-13T15:36:47;37.92;;;13.20;;
71665;SDS011;59503;53.486;10.196;2022-12-13T15:39:14;35.25;;;13.85;;
71665;SDS011;59503;53.486;10.196;2022-12-13T15:41:46;38.73;;;13.80;;
71665;SDS011;59503;53.486;10.196;2022-12-13T15:44:19;37.83;;;13.30;;
71665;SDS011;59503;53.486;10.196;2022-12-13T15:46:53;45.47;;;15.90;;
71665;SDS011;59503;53.486;10.196;2022-12-13T15:49:28;47.20;;;14.93;;
71665;SDS011;59503;53.486;10.196;2022-12-13T15:52:03;44.58;;;15.85;;
71665;SDS011;59503;53.486;10.196;2022-12-13T15:54:30;46.90;;;16.57;;
71665;SDS011;59503;53.486;10.196;2022-12-13T15:59:46;42.65;;;15.73;;
71665;SDS011;59503;53.486;10.196;2022-12-13T16:02:16;46.93;;;16.53;;
71665;SDS011;59503;53.486;10.196;2022-12-13T16:04:44;45.10;;;16.47;;
71665;SDS011;59503;53.486;10.196;2022-12-13T16:07:31;56.22;;;18.10;;
71665;SDS011;59503;53.486;10.196;2022-12-13T16:10:03;60.47;;;18.60;;
71665;SDS011;59503;53.486;10.196;2022-12-13T16:12:53;55.08;;;19.42;;
71665;SDS011;59503;53.486;10.196;2022-12-13T16:15:20;50.15;;;19.13;;
71665;SDS011;59503;53.486;10.196;2022-12-13T16:17:48;56.17;;;18.00;;
71665;SDS011;59503;53.486;10.196;2022-12-13T16:20:15;56.42;;;17.88;;